createdAt,value
2022-11-06T00:00:47.187Z,14.38
2022-11-06T00:03:14.147Z,14.51
2022-11-06T00:06:00.392Z,14.21
2022-11-06T00:08:37.279Z,14.22
2022-11-06T00:11:10.940Z,14.41
2022-11-06T00:13:38.082Z,14.32
2022-11-06T00:16:05.575Z,14.39
2022-11-06T00:18:32.652Z,14.31
2022-11-06T00:20:59.573Z,14.20
2022-11-06T00:23:26.231Z,14.01
2022-11-06T00:25:56.506Z,14.02
2022-11-06T00:28:23.595Z,14.23
2022-11-06T00:30:50.385Z,14.42
2022-11-06T00:33:17.070Z,14.18
2022-11-06T00:35:43.990Z,14.14
2022-11-06T00:38:10.921Z,14.26
2022-11-06T00:40:37.820Z,14.19
2022-11-06T00:43:04.699Z,14.24
2022-11-06T00:45:31.418Z,14.42
2022-11-06T00:47:58.089Z,14.29
2022-11-06T00:50:26.543Z,14.32
2022-11-06T00:52:53.675Z,14.43
2022-11-06T00:55:20.439Z,14.34
2022-11-06T00:57:47.376Z,14.21
2022-11-06T01:00:14.146Z,14.36
2022-11-06T01:02:41.035Z,14.47
2022-11-06T01:05:09.041Z,14.41
2022-11-06T01:07:35.774Z,14.39
2022-11-06T01:10:02.402Z,14.40
2022-11-06T01:12:31.211Z,14.51
2022-11-06T01:14:59.104Z,14.42
2022-11-06T01:17:25.841Z,14.25
2022-11-06T01:19:52.806Z,14.27
2022-11-06T01:22:19.452Z,14.46
2022-11-06T01:24:46.233Z,14.55
2022-11-06T01:27:25.855Z,14.32
2022-11-06T01:29:53.320Z,14.49
2022-11-06T01:32:20.643Z,14.17
2022-11-06T01:34:48.919Z,14.32
2022-11-06T01:37:15.544Z,14.43
2022-11-06T01:39:42.448Z,14.42
2022-11-06T01:42:13.148Z,14.60
2022-11-06T01:44:42.955Z,14.56
2022-11-06T01:47:23.980Z,14.40
2022-11-06T01:49:51.562Z,14.41
2022-11-06T01:52:18.615Z,14.40
2022-11-06T01:54:45.955Z,14.51
2022-11-06T01:57:13.011Z,14.58
2022-11-06T01:59:41.344Z,14.53
2022-11-06T02:02:08.319Z,14.48
2022-11-06T02:04:38.795Z,14.40
2022-11-06T02:07:05.517Z,14.36
2022-11-06T02:09:32.353Z,14.43
2022-11-06T02:12:03.192Z,14.34
2022-11-06T02:14:51.196Z,14.34
2022-11-06T02:17:18.081Z,14.37
2022-11-06T02:19:50.560Z,14.24
2022-11-06T02:22:29.063Z,14.26
2022-11-06T02:25:14.844Z,14.52
2022-11-06T02:27:44.302Z,14.29
2022-11-06T02:30:12.347Z,14.24
2022-11-06T02:32:46.807Z,14.32
2022-11-06T02:35:16.964Z,14.28
2022-11-06T02:37:43.647Z,14.27
2022-11-06T02:40:10.488Z,14.39
2022-11-06T02:42:38.348Z,14.03
2022-11-06T02:45:05.257Z,14.18
2022-11-06T02:47:33.192Z,14.36
2022-11-06T02:50:05.926Z,13.93
2022-11-06T02:52:34.504Z,14.09
2022-11-06T02:55:03.803Z,14.24
2022-11-06T02:57:30.488Z,14.32
2022-11-06T03:00:07.542Z,14.26
2022-11-06T03:02:43.112Z,14.32
2022-11-06T03:05:12.027Z,14.34
2022-11-06T03:07:40.343Z,14.50
2022-11-06T03:10:07.219Z,14.34
2022-11-06T03:12:38.611Z,14.29
2022-11-06T03:15:20.797Z,14.31
2022-11-06T03:18:02.659Z,14.41
2022-11-06T03:20:49.821Z,14.36
2022-11-06T03:23:19.061Z,14.24
2022-11-06T03:25:49.156Z,14.15
2022-11-06T03:28:16.068Z,14.31
2022-11-06T03:30:44.823Z,14.19
2022-11-06T03:33:11.770Z,14.31
2022-11-06T03:35:41.130Z,14.21
2022-11-06T03:38:09.564Z,14.30
2022-11-06T03:40:38.007Z,14.34
2022-11-06T03:43:05.243Z,14.33
2022-11-06T03:45:33.005Z,14.26
2022-11-06T03:48:01.400Z,14.39
2022-11-06T03:50:30.736Z,14.36
2022-11-06T03:52:59.056Z,14.27
2022-11-06T03:55:27.297Z,14.36
2022-11-06T03:57:55.444Z,14.26
2022-11-06T04:00:23.110Z,14.27
2022-11-06T04:03:04.970Z,14.18
2022-11-06T04:05:45.767Z,14.25
2022-11-06T04:08:31.519Z,14.22
2022-11-06T04:11:18.584Z,14.35
2022-11-06T04:13:57.711Z,14.43
2022-11-06T04:16:32.098Z,14.41
2022-11-06T04:18:59.207Z,14.20
2022-11-06T04:21:35.170Z,14.32
2022-11-06T04:24:26.910Z,14.31
2022-11-06T04:27:12.415Z,14.40
2022-11-06T04:29:39.311Z,14.39
2022-11-06T04:32:24.625Z,14.31
2022-11-06T04:35:20.920Z,14.28
2022-11-06T04:37:56.956Z,14.36
2022-11-06T04:40:26.320Z,14.24
2022-11-06T04:42:57.603Z,14.30
2022-11-06T04:45:26.047Z,14.40
2022-11-06T04:47:53.526Z,14.38
2022-11-06T04:50:21.025Z,14.43
2022-11-06T04:52:48.212Z,14.12
2022-11-06T04:55:14.853Z,14.23
2022-11-06T04:57:41.477Z,14.35
2022-11-06T05:00:11.090Z,14.35
2022-11-06T05:02:37.744Z,14.11
2022-11-06T05:05:04.557Z,14.23
2022-11-06T05:07:31.512Z,14.25
2022-11-06T05:09:58.331Z,14.17
2022-11-06T05:12:24.968Z,14.25
2022-11-06T05:14:51.920Z,14.26
2022-11-06T05:17:18.581Z,14.31
2022-11-06T05:19:45.236Z,14.21
2022-11-06T05:22:30.825Z,14.06
2022-11-06T05:24:57.489Z,14.21
2022-11-06T05:27:24.446Z,14.30
2022-11-06T05:29:51.114Z,14.04
2022-11-06T05:32:17.915Z,14.15
2022-11-06T05:34:46.908Z,13.92
2022-11-06T05:37:13.551Z,14.13
2022-11-06T05:39:42.088Z,14.24
2022-11-06T05:42:09.169Z,14.18
2022-11-06T05:44:36.040Z,14.14
2022-11-06T05:47:02.751Z,14.17
2022-11-06T05:49:29.727Z,14.21
2022-11-06T05:51:56.363Z,14.26
2022-11-06T05:54:24.001Z,14.26
2022-11-06T05:56:52.224Z,14.18
2022-11-06T05:59:18.883Z,14.14
2022-11-06T06:01:45.687Z,14.24
2022-11-06T06:04:12.727Z,14.11
2022-11-06T06:06:39.425Z,14.11
2022-11-06T06:09:06.153Z,14.24
2022-11-06T06:11:33.080Z,14.12
2022-11-06T06:14:00.216Z,14.15
2022-11-06T06:16:26.854Z,14.23
2022-11-06T06:18:53.751Z,14.11
2022-11-06T06:21:20.486Z,14.14
2022-11-06T06:23:47.189Z,14.19
2022-11-06T06:26:14.097Z,14.10
2022-11-06T06:28:40.793Z,14.09
2022-11-06T06:31:07.781Z,14.20
2022-11-06T06:33:34.806Z,14.09
2022-11-06T06:36:05.197Z,14.10
2022-11-06T06:38:32.127Z,14.14
2022-11-06T06:41:03.120Z,14.21
2022-11-06T06:43:29.739Z,14.04
2022-11-06T06:46:00.147Z,14.13
2022-11-06T06:48:27.129Z,14.28
2022-11-06T06:50:56.494Z,14.03
2022-11-06T06:53:23.177Z,14.18
2022-11-06T06:55:50.126Z,14.23
2022-11-06T06:58:18.203Z,14.16
2022-11-06T07:00:45.181Z,14.21
2022-11-06T07:03:12.243Z,14.24
2022-11-06T07:05:38.915Z,14.08
2022-11-06T07:08:05.601Z,14.32
2022-11-06T07:10:32.891Z,14.43
2022-11-06T07:13:02.793Z,14.37
2022-11-06T07:15:29.509Z,14.31
2022-11-06T07:18:01.740Z,14.17
2022-11-06T07:20:29.113Z,14.25
2022-11-06T07:22:56.134Z,14.27
2022-11-06T07:25:22.758Z,14.03
2022-11-06T07:27:49.418Z,14.21
2022-11-06T07:30:16.979Z,14.32
2022-11-06T07:32:43.794Z,14.32
2022-11-06T07:35:10.544Z,14.32
2022-11-06T07:37:37.454Z,14.24
2022-11-06T07:40:05.367Z,14.37
2022-11-06T07:42:32.009Z,14.27
2022-11-06T07:45:00.807Z,14.12
2022-11-06T07:47:30.115Z,14.21
2022-11-06T07:49:56.771Z,14.01
2022-11-06T07:52:23.848Z,14.24
2022-11-06T07:54:51.864Z,14.23
2022-11-06T07:57:18.557Z,14.17
2022-11-06T07:59:45.507Z,14.22
2022-11-06T08:02:13.099Z,14.17
2022-11-06T08:04:40.236Z,14.36
2022-11-06T08:07:06.915Z,14.23
2022-11-06T08:09:33.572Z,14.19
2022-11-06T08:12:00.483Z,14.32
2022-11-06T08:14:27.116Z,14.17
2022-11-06T08:16:54.062Z,13.99
2022-11-06T08:19:21.085Z,14.22
2022-11-06T08:21:47.734Z,14.35
2022-11-06T08:24:19.046Z,14.13
2022-11-06T08:26:48.638Z,14.27
2022-11-06T08:29:15.300Z,14.19
2022-11-06T08:31:42.183Z,14.34
2022-11-06T08:34:09.320Z,14.26
2022-11-06T08:36:36.958Z,14.16
2022-11-06T08:39:03.703Z,14.33
2022-11-06T08:41:30.621Z,14.31
2022-11-06T08:43:57.445Z,14.18
2022-11-06T08:46:24.104Z,14.28
2022-11-06T08:48:51.095Z,14.32
2022-11-06T08:51:17.821Z,14.29
2022-11-06T08:53:44.603Z,14.35
2022-11-06T08:56:12.084Z,14.39
2022-11-06T08:58:38.707Z,14.28
2022-11-06T09:01:05.444Z,14.41
2022-11-06T09:03:32.452Z,14.30
2022-11-06T09:05:59.165Z,14.45
2022-11-06T09:08:25.993Z,14.56
2022-11-06T09:10:58.153Z,14.50
2022-11-06T09:13:26.316Z,14.43
2022-11-06T09:15:53.297Z,14.61
2022-11-06T09:18:20.378Z,14.54
2022-11-06T09:20:47.286Z,14.59
2022-11-06T09:23:15.527Z,14.59
2022-11-06T09:25:42.723Z,14.97
2022-11-06T09:28:09.915Z,14.77
2022-11-06T09:30:37.427Z,14.80
2022-11-06T09:33:06.169Z,14.81
2022-11-06T09:35:36.275Z,14.88
2022-11-06T09:38:03.958Z,15.01
2022-11-06T09:40:44.583Z,14.70
2022-11-06T09:43:43.156Z,14.91
2022-11-06T09:46:21.202Z,14.93
2022-11-06T09:48:50.763Z,14.96
2022-11-06T09:51:35.983Z,15.23
2022-11-06T09:54:16.593Z,15.15
2022-11-06T09:56:43.377Z,15.19
2022-11-06T09:59:17.404Z,15.07
2022-11-06T10:01:46.277Z,15.03
2022-11-06T10:04:37.037Z,15.26
2022-11-06T10:07:11.656Z,15.44
2022-11-06T10:09:38.803Z,15.12
2022-11-06T10:12:11.675Z,15.26
2022-11-06T10:14:41.587Z,15.25
2022-11-06T10:17:27.205Z,15.33
2022-11-06T10:19:58.063Z,15.43
2022-11-06T10:22:31.298Z,15.38
2022-11-06T10:25:04.523Z,15.32
2022-11-06T10:27:41.279Z,15.64
2022-11-06T10:30:08.294Z,15.33
2022-11-06T10:32:54.032Z,15.41
2022-11-06T10:35:24.000Z,15.49
2022-11-06T10:38:13.126Z,15.60
2022-11-06T10:40:40.458Z,15.72
2022-11-06T10:43:07.186Z,15.53
2022-11-06T10:45:33.996Z,15.72
2022-11-06T10:48:05.896Z,15.59
2022-11-06T10:50:40.456Z,15.71
2022-11-06T10:53:08.677Z,15.72
2022-11-06T10:55:39.831Z,15.83
2022-11-06T10:58:10.888Z,15.78
2022-11-06T11:00:40.308Z,15.81
2022-11-06T11:03:13.826Z,15.77
2022-11-06T11:05:41.824Z,15.64
2022-11-06T11:08:44.221Z,15.69
2022-11-06T11:11:14.254Z,15.98
2022-11-06T11:13:41.856Z,16.13
2022-11-06T11:16:16.925Z,15.96
2022-11-06T11:18:44.791Z,15.95
2022-11-06T11:21:17.653Z,16.01
2022-11-06T11:23:46.427Z,15.95
2022-11-06T11:26:13.109Z,16.14
2022-11-06T11:28:39.728Z,15.95
2022-11-06T11:31:12.014Z,15.87
2022-11-06T11:33:42.434Z,15.99
2022-11-06T11:36:09.951Z,15.97
2022-11-06T11:38:37.525Z,16.10
2022-11-06T11:41:19.511Z,16.15
2022-11-06T11:43:59.123Z,15.98
2022-11-06T11:46:27.249Z,16.10
2022-11-06T11:48:57.884Z,16.03
2022-11-06T11:51:28.385Z,16.07
2022-11-06T11:54:13.673Z,16.14
2022-11-06T11:57:03.765Z,16.26
2022-11-06T11:59:38.413Z,16.10
2022-11-06T12:02:19.802Z,16.09
2022-11-06T12:04:53.514Z,16.19
2022-11-06T12:07:30.127Z,16.15
2022-11-06T12:09:57.109Z,16.19
2022-11-06T12:12:24.703Z,16.27
2022-11-06T12:15:04.173Z,15.86
2022-11-06T12:17:31.739Z,15.91
2022-11-06T12:19:58.871Z,16.02
2022-11-06T12:22:28.016Z,16.08
2022-11-06T12:24:56.375Z,16.06
2022-11-06T12:27:24.554Z,16.20
2022-11-06T12:29:51.995Z,15.98
2022-11-06T12:32:21.755Z,16.25
2022-11-06T12:34:50.940Z,16.25
2022-11-06T12:37:23.441Z,16.35
2022-11-06T12:40:05.588Z,16.22
2022-11-06T12:42:32.369Z,16.07
2022-11-06T12:44:59.699Z,16.13
2022-11-06T12:47:34.012Z,16.13
2022-11-06T12:50:13.372Z,16.18
2022-11-06T12:53:03.452Z,16.13
2022-11-06T12:55:38.032Z,16.15
2022-11-06T12:58:11.162Z,16.28
2022-11-06T13:00:41.672Z,16.34
2022-11-06T13:03:08.752Z,16.42
2022-11-06T13:05:38.270Z,16.30
2022-11-06T13:08:20.768Z,16.28
2022-11-06T13:10:52.259Z,16.38
2022-11-06T13:13:22.186Z,16.45
2022-11-06T13:15:51.710Z,16.21
2022-11-06T13:18:18.468Z,16.44
2022-11-06T13:20:52.768Z,16.38
2022-11-06T13:23:27.010Z,16.47
2022-11-06T13:26:04.561Z,16.45
2022-11-06T13:28:35.618Z,16.20
2022-11-06T13:31:03.509Z,16.25
2022-11-06T13:33:31.419Z,16.59
2022-11-06T13:35:59.246Z,16.37
2022-11-06T13:38:29.800Z,16.31
2022-11-06T13:41:03.649Z,16.39
2022-11-06T13:43:31.154Z,16.39
2022-11-06T13:46:07.659Z,16.68
2022-11-06T13:48:37.750Z,16.47
2022-11-06T13:51:09.044Z,16.56
2022-11-06T13:53:39.103Z,16.44
2022-11-06T13:56:07.190Z,16.62
2022-11-06T13:58:55.379Z,16.67
2022-11-06T14:01:34.805Z,16.59
2022-11-06T14:04:09.251Z,16.51
2022-11-06T14:06:36.433Z,16.55
2022-11-06T14:09:07.410Z,16.61
2022-11-06T14:11:38.103Z,16.50
2022-11-06T14:14:15.014Z,16.44
2022-11-06T14:16:43.693Z,16.57
2022-11-06T14:19:15.211Z,16.70
2022-11-06T14:21:47.195Z,16.84
2022-11-06T14:24:14.384Z,16.67
2022-11-06T14:26:45.584Z,16.65
2022-11-06T14:29:27.922Z,16.79
2022-11-06T14:32:07.940Z,16.72
2022-11-06T14:34:35.564Z,16.60
2022-11-06T14:37:18.035Z,16.55
2022-11-06T14:39:52.987Z,16.60
2022-11-06T14:42:40.574Z,16.48
2022-11-06T14:45:12.544Z,16.49
2022-11-06T14:47:39.736Z,16.54
2022-11-06T14:50:09.269Z,16.49
2022-11-06T14:52:48.111Z,16.56
2022-11-06T14:55:24.082Z,16.58
2022-11-06T14:57:51.391Z,16.54
2022-11-06T15:00:38.494Z,16.39
2022-11-06T15:03:06.275Z,16.19
2022-11-06T15:05:41.869Z,16.27
2022-11-06T15:08:09.464Z,16.27
2022-11-06T15:10:42.449Z,16.18
2022-11-06T15:13:09.524Z,16.13
2022-11-06T15:15:36.492Z,16.27
2022-11-06T15:18:03.207Z,16.12
2022-11-06T15:20:31.190Z,16.09
2022-11-06T15:22:59.802Z,16.13
2022-11-06T15:25:28.166Z,15.93
2022-11-06T15:27:59.693Z,15.84
2022-11-06T15:30:26.836Z,15.78
2022-11-06T15:32:54.700Z,15.80
2022-11-06T15:35:28.867Z,15.67
2022-11-06T15:38:04.851Z,15.88
2022-11-06T15:40:36.267Z,15.83
2022-11-06T15:43:22.142Z,15.85
2022-11-06T15:46:06.825Z,15.58
2022-11-06T15:48:35.219Z,15.67
2022-11-06T15:51:03.007Z,15.53
2022-11-06T15:53:30.397Z,15.44
2022-11-06T15:56:01.810Z,15.31
2022-11-06T15:58:35.822Z,15.55
2022-11-06T16:01:03.972Z,15.38
2022-11-06T16:03:32.482Z,15.35
2022-11-06T16:06:03.683Z,15.34
2022-11-06T16:08:31.791Z,15.48
2022-11-06T16:10:59.343Z,15.37
2022-11-06T16:13:26.947Z,15.37
2022-11-06T16:15:53.864Z,15.19
2022-11-06T16:18:23.913Z,15.38
2022-11-06T16:20:57.357Z,15.43
2022-11-06T16:23:33.587Z,15.18
2022-11-06T16:26:11.724Z,15.18
2022-11-06T16:28:42.635Z,15.18
2022-11-06T16:31:23.360Z,15.13
2022-11-06T16:33:57.593Z,15.26
2022-11-06T16:36:25.950Z,15.25
2022-11-06T16:38:54.276Z,15.27
2022-11-06T16:41:42.767Z,15.22
2022-11-06T16:44:22.584Z,15.35
2022-11-06T16:47:09.780Z,15.42
2022-11-06T16:49:40.796Z,15.33
2022-11-06T16:52:28.013Z,15.34
2022-11-06T16:54:56.824Z,15.31
2022-11-06T16:57:26.110Z,15.34
2022-11-06T17:00:13.657Z,15.25
2022-11-06T17:02:41.023Z,15.39
2022-11-06T17:05:13.164Z,15.30
2022-11-06T17:07:41.900Z,15.29
2022-11-06T17:10:24.686Z,15.19
2022-11-06T17:12:52.044Z,15.33
2022-11-06T17:15:24.895Z,15.00
2022-11-06T17:17:52.195Z,15.19
2022-11-06T17:20:19.718Z,15.13
2022-11-06T17:22:47.070Z,15.22
2022-11-06T17:25:14.624Z,15.23
2022-11-06T17:27:42.024Z,15.34
2022-11-06T17:30:13.371Z,15.28
2022-11-06T17:32:41.257Z,15.24
2022-11-06T17:35:09.603Z,15.16
2022-11-06T17:37:37.059Z,15.05
2022-11-06T17:40:08.142Z,15.23
2022-11-06T17:42:35.796Z,15.10
2022-11-06T17:45:03.764Z,15.10
2022-11-06T17:47:32.023Z,14.82
2022-11-06T17:50:00.007Z,14.84
2022-11-06T17:52:27.916Z,14.99
2022-11-06T17:54:55.536Z,15.00
2022-11-06T17:57:24.193Z,14.89
2022-11-06T17:59:51.685Z,14.81
2022-11-06T18:02:40.781Z,14.82
2022-11-06T18:05:08.410Z,14.89
2022-11-06T18:07:35.772Z,14.74
2022-11-06T18:10:04.704Z,14.75
2022-11-06T18:12:32.384Z,14.65
2022-11-06T18:15:01.226Z,14.57
2022-11-06T18:17:29.989Z,14.51
2022-11-06T18:19:57.881Z,14.41
2022-11-06T18:22:25.146Z,14.46
2022-11-06T18:24:53.866Z,14.32
2022-11-06T18:27:21.811Z,14.43
2022-11-06T18:29:48.613Z,14.40
2022-11-06T18:32:16.474Z,14.51
2022-11-06T18:34:44.801Z,14.42
2022-11-06T18:37:12.292Z,14.41
2022-11-06T18:39:40.297Z,14.33
2022-11-06T18:42:08.060Z,14.59
2022-11-06T18:44:40.918Z,14.39
2022-11-06T18:47:08.890Z,14.19
2022-11-06T18:49:36.878Z,14.10
2022-11-06T18:52:04.614Z,14.24
2022-11-06T18:54:32.262Z,13.91
2022-11-06T18:57:00.296Z,14.09
2022-11-06T18:59:29.739Z,13.54
2022-11-06T19:01:57.949Z,13.66
2022-11-06T19:04:26.868Z,13.95
2022-11-06T19:06:54.877Z,13.96
2022-11-06T19:09:25.247Z,13.79
2022-11-06T19:11:53.899Z,13.87
2022-11-06T19:14:26.840Z,13.95
2022-11-06T19:16:54.492Z,13.92
2022-11-06T19:19:25.471Z,14.11
2022-11-06T19:21:53.718Z,13.68
2022-11-06T19:24:20.995Z,13.88
2022-11-06T19:26:51.068Z,14.00
2022-11-06T19:29:21.054Z,14.03
2022-11-06T19:31:49.652Z,14.14
2022-11-06T19:34:16.862Z,13.88
2022-11-06T19:36:48.785Z,13.73
2022-11-06T19:39:19.337Z,14.03
2022-11-06T19:41:47.914Z,14.12
2022-11-06T19:44:15.545Z,13.77
2022-11-06T19:46:42.726Z,13.98
2022-11-06T19:49:11.586Z,13.85
2022-11-06T19:51:41.054Z,14.04
2022-11-06T19:54:12.356Z,13.86
2022-11-06T19:57:29.145Z,13.76
2022-11-06T19:59:40.228Z,13.59
2022-11-06T20:02:08.256Z,13.86
2022-11-06T20:04:39.403Z,13.82
2022-11-06T20:07:07.988Z,13.75
2022-11-06T20:09:35.204Z,13.48
2022-11-06T20:12:04.341Z,13.79
2022-11-06T20:14:31.816Z,13.55
2022-11-06T20:16:59.156Z,13.64
2022-11-06T20:19:27.982Z,13.53
2022-11-06T20:21:58.692Z,13.52
2022-11-06T20:24:27.033Z,13.45
2022-11-06T20:26:54.923Z,13.54
2022-11-06T20:29:22.277Z,13.54
2022-11-06T20:31:52.772Z,13.39
2022-11-06T20:34:26.954Z,13.42
2022-11-06T20:36:54.767Z,13.41
2022-11-06T20:39:22.646Z,13.45
2022-11-06T20:41:52.332Z,13.47
2022-11-06T20:44:19.536Z,13.61
2022-11-06T20:46:47.915Z,13.66
2022-11-06T20:49:15.377Z,13.43
2022-11-06T20:52:07.392Z,13.51
2022-11-06T20:54:29.895Z,13.34
2022-11-06T20:56:57.114Z,13.25
2022-11-06T20:59:24.026Z,13.18
2022-11-06T21:01:52.261Z,12.87
2022-11-06T21:04:19.620Z,13.23
2022-11-06T21:06:47.709Z,13.45
2022-11-06T21:09:16.948Z,13.25
2022-11-06T21:11:43.936Z,13.10
2022-11-06T21:14:11.181Z,13.14
2022-11-06T21:16:42.516Z,13.09
2022-11-06T21:19:10.367Z,13.15
2022-11-06T21:21:38.183Z,12.99
2022-11-06T21:24:06.095Z,13.21
2022-11-06T21:26:37.473Z,13.26
2022-11-06T21:29:05.783Z,13.43
2022-11-06T21:31:43.952Z,13.26
2022-11-06T21:34:25.478Z,13.11
2022-11-06T21:36:52.622Z,13.11
2022-11-06T21:39:21.642Z,13.13
2022-11-06T21:41:54.036Z,12.75
2022-11-06T21:44:22.379Z,12.80
2022-11-06T21:46:54.126Z,13.06
2022-11-06T21:49:21.746Z,13.04
2022-11-06T21:51:51.789Z,13.22
2022-11-06T21:54:37.483Z,13.34
2022-11-06T21:57:04.697Z,13.40
2022-11-06T21:59:35.198Z,12.82
2022-11-06T22:02:06.407Z,13.11
2022-11-06T22:04:33.512Z,12.86
2022-11-06T22:07:00.240Z,12.73
2022-11-06T22:09:28.498Z,12.85
2022-11-06T22:11:55.627Z,12.93
2022-11-06T22:14:22.481Z,12.92
2022-11-06T22:16:49.867Z,12.82
2022-11-06T22:19:17.681Z,13.06
2022-11-06T22:21:44.434Z,12.85
2022-11-06T22:24:11.674Z,12.94
2022-11-06T22:26:38.712Z,12.87
2022-11-06T22:29:06.388Z,12.66
2022-11-06T22:31:33.151Z,12.72
2022-11-06T22:34:00.222Z,12.93
2022-11-06T22:36:26.913Z,13.13
2022-11-06T22:38:53.871Z,13.13
2022-11-06T22:41:22.352Z,13.03
2022-11-06T22:43:49.099Z,12.99
2022-11-06T22:46:20.182Z,12.84
2022-11-06T22:48:47.544Z,12.87
2022-11-06T22:51:15.235Z,13.26
2022-11-06T22:53:42.042Z,13.33
2022-11-06T22:56:09.155Z,13.34
2022-11-06T22:58:35.794Z,13.38
2022-11-06T23:01:02.478Z,13.38
2022-11-06T23:03:29.900Z,13.41
2022-11-06T23:05:59.960Z,13.07
2022-11-06T23:08:26.824Z,13.04
2022-11-06T23:10:54.794Z,13.25
2022-11-06T23:13:21.668Z,12.94
2022-11-06T23:15:48.555Z,13.28
2022-11-06T23:18:15.478Z,13.22
2022-11-06T23:20:42.164Z,13.11
2022-11-06T23:23:08.850Z,13.08
2022-11-06T23:25:35.919Z,13.19
2022-11-06T23:28:02.583Z,13.17
2022-11-06T23:30:32.164Z,13.22
2022-11-06T23:32:59.080Z,13.28
2022-11-06T23:35:31.985Z,13.32
2022-11-06T23:37:59.742Z,13.30
2022-11-06T23:40:26.424Z,13.48
2022-11-06T23:42:54.776Z,13.38
2022-11-06T23:45:40.570Z,13.40
2022-11-06T23:48:13.498Z,13.36
2022-11-06T23:50:40.854Z,13.26
2022-11-06T23:53:07.561Z,13.26
2022-11-06T23:55:34.204Z,13.39
2022-11-06T23:58:01.144Z,13.23
